Time;durP1;ratioP1;P1;durP2;ratioP2;P2;SDS_P1;SDS_P2;PMS_P1;PMS_P2;Temp;Humidity;BMP_temperature;BMP_pressure;BME280_temperature;BME280_humidity;BME280_pressure;Samples;Min_cycle;Max_cycle;Signal;HPM_P1;HPM_P2
2021/05/08 00:00:56;;;;;;;7.57;2.35;;;10.30;61.00;;;;;;5028551;28;20025;-83
2021/05/08 00:03:22;;;;;;;8.60;1.52;;;10.20;61.30;;;;;;5027083;28;20033;-82
2021/05/08 00:05:48;;;;;;;9.75;2.13;;;10.10;61.70;;;;;;5027326;28;20538;-83
2021/05/08 00:08:14;;;;;;;8.65;4.35;;;10.00;62.30;;;;;;5028251;28;20030;-81
2021/05/08 00:10:41;;;;;;;14.80;3.95;;;9.80;63.10;;;;;;5028324;28;20090;-82
2021/05/08 00:13:07;;;;;;;13.45;4.70;;;9.60;64.10;;;;;;5027168;28;20424;-80
2021/05/08 00:15:32;;;;;;;10.18;3.25;;;9.50;64.20;;;;;;5010805;28;20037;-81
2021/05/08 00:17:58;;;;;;;12.95;5.55;;;9.30;65.10;;;;;;5026513;28;20037;-81
2021/05/08 00:20:24;;;;;;;13.73;4.00;;;9.20;65.80;;;;;;5026865;28;20029;-83
2021/05/08 00:22:49;;;;;;;11.90;3.95;;;9.10;66.80;;;;;;5026644;28;20041;-80
2021/05/08 00:25:15;;;;;;;10.23;2.72;;;9.00;67.40;;;;;;5026490;28;20053;-79
2021/05/08 00:27:41;;;;;;;13.70;4.00;;;8.80;68.90;;;;;;5026492;28;20091;-81
2021/05/08 00:30:08;;;;;;;7.88;2.20;;;8.70;68.90;;;;;;5010408;28;20029;-79
2021/05/08 00:32:35;;;;;;;4.57;1.60;;;8.60;70.20;;;;;;5027728;28;20021;-82
2021/05/08 00:35:01;;;;;;;8.40;1.58;;;8.50;70.70;;;;;;5026798;28;20025;-82
2021/05/08 00:37:27;;;;;;;5.32;1.75;;;8.40;71.40;;;;;;5026368;28;20518;-81
2021/05/08 00:39:53;;;;;;;5.82;1.42;;;8.40;72.10;;;;;;5009661;28;20567;-80
2021/05/08 00:42:19;;;;;;;7.07;1.88;;;8.30;72.90;;;;;;5026336;28;20021;-81
2021/05/08 00:44:45;;;;;;;8.75;1.83;;;8.20;73.50;;;;;;5027499;28;20049;-81
2021/05/08 00:47:11;;;;;;;5.10;1.25;;;8.20;74.40;;;;;;5026305;28;20480;-84
2021/05/08 00:49:41;;;;;;;6.68;1.85;;;8.10;75.20;;;;;;5009867;28;20082;-81
2021/05/08 00:52:06;;;;;;;;;;;8.10;76.20;;;;;;5026831;28;20021;-80
2021/05/08 00:54:33;;;;;;;9.68;1.60;;;8.10;76.60;;;;;;5027720;28;20355;-81
2021/05/08 00:57:00;;;;;;;5.38;1.73;;;8.00;76.60;;;;;;5027315;28;20130;-82
2021/05/08 00:59:26;;;;;;;6.28;1.40;;;8.00;77.80;;;;;;5026296;28;20061;-82
2021/05/08 01:01:52;;;;;;;5.97;1.55;;;8.00;78.70;;;;;;5027412;28;20040;-81
2021/05/08 01:04:18;;;;;;;8.35;1.63;;;8.00;79.90;;;;;;5009762;28;20281;-83
2021/05/08 01:06:44;;;;;;;5.30;1.52;;;8.00;80.40;;;;;;5027568;28;20031;-84
2021/05/08 01:09:11;;;;;;;12.60;2.50;;;7.90;81.30;;;;;;5009592;28;20392;-83
2021/05/08 01:11:38;;;;;;;3.67;1.17;;;7.90;82.00;;;;;;5027338;28;20033;-83
2021/05/08 01:14:04;;;;;;;4.00;1.38;;;7.90;82.80;;;;;;5026192;28;20503;-81
2021/05/08 01:16:30;;;;;;;7.72;1.77;;;7.80;83.30;;;;;;5026246;28;20109;-84
2021/05/08 01:18:56;;;;;;;9.30;2.47;;;7.80;84.20;;;;;;5026197;28;20053;-82
2021/05/08 01:21:22;;;;;;;5.55;1.77;;;7.80;85.10;;;;;;5026050;28;20103;-82
2021/05/08 01:23:50;;;;;;;8.43;2.00;;;7.80;86.00;;;;;;5009641;28;20432;-81
2021/05/08 01:26:16;;;;;;;5.13;1.58;;;7.70;86.80;;;;;;5009958;28;20529;-82
2021/05/08 01:28:43;;;;;;;4.32;1.95;;;7.70;87.70;;;;;;5025819;28;20039;-81
2021/05/08 01:31:12;;;;;;;4.75;1.65;;;7.70;88.50;;;;;;5029317;28;20415;-82
2021/05/08 01:33:39;;;;;;;6.93;1.90;;;7.70;89.60;;;;;;5013543;28;20029;-82
2021/05/08 01:36:05;;;;;;;3.78;1.58;;;7.70;89.90;;;;;;5029900;28;20036;-81
2021/05/08 01:38:32;;;;;;;7.03;2.95;;;7.70;90.30;;;;;;5013494;28;20392;-81
2021/05/08 01:41:08;;;;;;;5.63;2.20;;;7.70;90.50;;;;;;5029796;28;20030;-82
2021/05/08 01:43:35;;;;;;;5.28;2.20;;;7.60;90.80;;;;;;5029568;28;20120;-82
2021/05/08 01:46:01;;;;;;;8.38;2.40;;;7.60;91.00;;;;;;5030870;28;20083;-81
2021/05/08 01:48:28;;;;;;;13.13;2.33;;;7.60;91.30;;;;;;5029680;28;20017;-83
2021/05/08 01:50:54;;;;;;;6.05;2.15;;;7.60;91.80;;;;;;5029772;28;20025;-82
2021/05/08 01:53:20;;;;;;;8.48;2.10;;;7.60;92.20;;;;;;5029713;28;20052;-80
2021/05/08 01:55:46;;;;;;;9.85;2.55;;;7.60;92.60;;;;;;5029671;28;20021;-81
2021/05/08 01:58:12;;;;;;;9.43;3.25;;;7.50;92.90;;;;;;5012833;28;20053;-82
2021/05/08 02:00:43;;;;;;;8.98;3.22;;;7.50;93.30;;;;;;5030652;28;20091;-82
2021/05/08 02:03:11;;;;;;;5.00;2.40;;;7.50;93.70;;;;;;5029497;28;20036;-81
2021/05/08 02:05:38;;;;;;;10.27;4.03;;;7.50;94.10;;;;;;5013652;28;20033;-80
2021/05/08 02:08:06;;;;;;;11.27;3.33;;;7.50;94.30;;;;;;5031465;28;20030;-80
2021/05/08 02:10:36;;;;;;;10.75;4.47;;;7.50;94.70;;;;;;5030085;28;20021;-82
2021/05/08 02:13:06;;;;;;;;;;;7.50;94.90;;;;;;5030261;28;20103;-80
2021/05/08 02:15:32;;;;;;;6.70;3.45;;;7.40;95.00;;;;;;5029374;28;19913;-80
2021/05/08 02:17:58;;;;;;;20.05;5.22;;;7.40;95.00;;;;;;5030630;28;20029;-83
2021/05/08 02:20:30;;;;;;;18.98;4.20;;;7.40;95.10;;;;;;5030535;28;20033;-81
2021/05/08 02:22:58;;;;;;;13.80;3.60;;;7.50;95.50;;;;;;5030392;28;20488;-80
2021/05/08 02:25:24;;;;;;;9.90;3.35;;;7.50;95.80;;;;;;5030197;28;20040;-80
2021/05/08 02:27:50;;;;;;;10.40;2.60;;;7.50;95.90;;;;;;5012469;28;20037;-80
2021/05/08 02:30:22;;;;;;;16.08;4.53;;;7.60;95.90;;;;;;5030171;28;20455;-80
2021/05/08 02:32:48;;;;;;;15.20;4.28;;;7.50;96.10;;;;;;5028712;28;20032;-81
2021/05/08 02:35:16;;;;;;;18.58;5.70;;;7.50;96.40;;;;;;5012563;28;20100;-80
2021/05/08 02:37:42;;;;;;;10.57;3.83;;;7.50;96.60;;;;;;5029128;28;20040;-83
2021/05/08 02:40:12;;;;;;;7.07;2.90;;;7.50;96.80;;;;;;5028779;28;20056;-81
2021/05/08 02:42:39;;;;;;;12.13;3.65;;;7.50;96.90;;;;;;5028809;28;20477;-81
2021/05/08 02:45:07;;;;;;;16.58;4.28;;;7.40;97.00;;;;;;5028796;28;20038;-80
2021/05/08 02:47:33;;;;;;;11.48;3.60;;;7.30;97.20;;;;;;5028727;28;20026;-79
2021/05/08 02:49:59;;;;;;;17.95;3.28;;;7.30;97.40;;;;;;5030039;28;20034;-81
2021/05/08 02:52:25;;;;;;;14.38;3.40;;;7.30;97.50;;;;;;5028981;28;20395;-80
2021/05/08 02:54:50;;;;;;;14.38;3.92;;;7.20;97.70;;;;;;5030087;28;20369;-81
2021/05/08 02:57:16;;;;;;;19.38;4.82;;;7.20;97.90;;;;;;5028353;28;20060;-81
2021/05/08 02:59:42;;;;;;;18.20;3.35;;;7.10;97.90;;;;;;5029711;28;20401;-81
2021/05/08 03:02:09;;;;;;;15.70;3.67;;;7.20;98.10;;;;;;5011577;28;20029;-81
2021/05/08 03:04:35;;;;;;;15.07;2.80;;;7.20;98.00;;;;;;5029278;28;20490;-80
2021/05/08 03:07:04;;;;;;;11.20;3.22;;;7.20;98.10;;;;;;5027844;28;20033;-83
2021/05/08 03:09:31;;;;;;;16.77;2.85;;;7.10;98.20;;;;;;5027754;28;20037;-80
2021/05/08 03:11:57;;;;;;;15.25;3.47;;;7.10;98.30;;;;;;5027306;28;20021;-80
2021/05/08 03:14:23;;;;;;;12.93;4.05;;;7.00;98.40;;;;;;5028496;28;20428;-82
2021/05/08 03:16:49;;;;;;;14.07;3.70;;;7.00;98.60;;;;;;5027355;28;20025;-80
2021/05/08 03:19:15;;;;;;;10.35;3.38;;;7.00;98.70;;;;;;5027386;28;20029;-79
2021/05/08 03:21:41;;;;;;;14.15;3.85;;;7.00;98.90;;;;;;5027113;28;20033;-82
2021/05/08 03:24:07;;;;;;;19.70;4.55;;;7.00;99.00;;;;;;5010760;28;20044;-79
2021/05/08 03:26:33;;;;;;;30.20;5.35;;;7.00;99.20;;;;;;5026658;28;20113;-80
2021/05/08 03:28:59;;;;;;;24.15;5.13;;;7.00;99.50;;;;;;5026633;28;20132;-78
2021/05/08 03:31:25;;;;;;;23.65;4.43;;;7.00;99.60;;;;;;5028184;28;20025;-81
2021/05/08 03:33:51;;;;;;;22.13;4.60;;;7.00;99.80;;;;;;5028294;28;20036;-80
2021/05/08 03:36:17;;;;;;;27.30;5.68;;;7.00;99.90;;;;;;5026482;28;20060;-81
2021/05/08 03:38:43;;;;;;;21.98;4.60;;;7.10;99.90;;;;;;5027871;28;20029;-80
2021/05/08 03:41:09;;;;;;;25.02;5.43;;;7.10;99.90;;;;;;5009794;28;20512;-81
2021/05/08 03:43:34;;;;;;;16.65;4.47;;;7.10;99.90;;;;;;5026211;28;20116;-81
2021/05/08 03:46:00;;;;;;;26.05;5.53;;;7.10;99.90;;;;;;5026184;28;20043;-80
2021/05/08 03:48:26;;;;;;;21.77;6.05;;;7.20;99.90;;;;;;5025774;28;20042;-80
2021/05/08 03:50:52;;;;;;;26.88;4.95;;;7.20;99.90;;;;;;5026254;28;20033;-82
2021/05/08 03:53:20;;;;;;;31.20;6.28;;;7.20;99.90;;;;;;5025595;28;20056;-80
2021/05/08 03:55:46;;;;;;;19.25;4.30;;;7.30;99.90;;;;;;5026164;28;20418;-81
2021/05/08 03:58:12;;;;;;;26.48;5.07;;;7.30;99.90;;;;;;5026365;28;20057;-81
2021/05/08 04:00:38;;;;;;;20.17;5.10;;;7.30;99.90;;;;;;5027557;28;20104;-81
2021/05/08 04:03:03;;;;;;;22.15;4.45;;;7.40;99.90;;;;;;5009372;28;20131;-81
2021/05/08 04:05:30;;;;;;;26.80;5.95;;;7.40;99.90;;;;;;5009049;28;20041;-81
2021/05/08 04:07:56;;;;;;;23.75;5.18;;;7.40;99.90;;;;;;5027156;28;20025;-80
2021/05/08 04:10:21;;;;;;;19.13;4.10;;;7.40;99.90;;;;;;5009005;28;20421;-79
2021/05/08 04:12:47;;;;;;;21.70;4.45;;;7.40;99.90;;;;;;5025524;28;20441;-82
2021/05/08 04:15:13;;;;;;;20.20;4.68;;;7.40;99.90;;;;;;5025767;28;20179;-81
2021/05/08 04:17:39;;;;;;;25.33;5.88;;;7.40;99.90;;;;;;5041765;28;20041;-81
2021/05/08 04:20:05;;;;;;;17.55;4.55;;;7.40;99.90;;;;;;5025551;28;20376;-80
2021/05/08 04:22:31;;;;;;;24.02;3.83;;;7.50;99.90;;;;;;5026189;28;20189;-81
2021/05/08 04:24:56;;;;;;;18.00;5.28;;;7.50;99.90;;;;;;5024682;28;20539;-80
2021/05/08 04:27:22;;;;;;;11.45;3.47;;;7.50;99.90;;;;;;5026917;28;20108;-81
2021/05/08 04:29:48;;;;;;;25.95;5.15;;;7.50;99.90;;;;;;5025470;28;20468;-80
2021/05/08 04:32:13;;;;;;;29.95;5.35;;;7.50;99.90;;;;;;5026325;28;20021;-79
2021/05/08 04:34:39;;;;;;;17.17;5.70;;;7.50;99.90;;;;;;5026692;28;20075;-81
2021/05/08 04:37:05;;;;;;;22.13;4.90;;;7.60;99.90;;;;;;5026918;28;20374;-81
2021/05/08 04:39:31;;;;;;;21.25;4.80;;;7.50;99.90;;;;;;5009259;28;20133;-80
2021/05/08 04:41:57;;;;;;;14.55;3.83;;;7.60;99.90;;;;;;5009122;28;20033;-82
2021/05/08 04:44:24;;;;;;;19.35;4.47;;;7.60;99.90;;;;;;5025427;28;20040;-80
2021/05/08 04:46:49;;;;;;;23.17;4.43;;;7.60;99.90;;;;;;5026932;28;20132;-82
2021/05/08 04:49:15;;;;;;;20.73;5.35;;;7.60;99.90;;;;;;5025099;28;20036;-81
2021/05/08 04:51:41;;;;;;;25.00;4.03;;;7.60;99.90;;;;;;5026282;28;20091;-81
2021/05/08 04:54:07;;;;;;;23.23;5.28;;;7.60;99.90;;;;;;5025045;28;20411;-80
2021/05/08 04:56:32;;;;;;;26.48;5.18;;;7.60;99.90;;;;;;5025551;28;20057;-81
2021/05/08 04:58:59;;;;;;;25.88;4.50;;;7.70;99.90;;;;;;5025696;28;20029;-79
2021/05/08 05:01:25;;;;;;;20.10;5.32;;;7.70;99.90;;;;;;5027158;28;20030;-79
2021/05/08 05:03:51;;;;;;;16.30;4.22;;;7.70;99.90;;;;;;5027507;28;20100;-79
2021/05/08 05:06:16;;;;;;;14.75;4.10;;;7.70;99.90;;;;;;5027244;28;20033;-82
2021/05/08 05:08:43;;;;;;;13.27;4.40;;;7.70;99.90;;;;;;5029439;28;20090;-80
2021/05/08 05:11:09;;;;;;;15.23;4.88;;;7.80;99.90;;;;;;5029919;28;20032;-81
2021/05/08 05:13:34;;;;;;;23.00;5.05;;;7.80;99.90;;;;;;5029842;28;20041;-82
2021/05/08 05:16:00;;;;;;;23.80;6.90;;;7.80;99.90;;;;;;5013064;28;20025;-82
2021/05/08 05:18:29;;;;;;;14.02;3.47;;;7.90;99.90;;;;;;5013512;28;20033;-82
2021/05/08 05:20:55;;;;;;;23.95;6.15;;;7.90;99.90;;;;;;5014309;28;20334;-81
2021/05/08 05:23:20;;;;;;;13.27;4.80;;;7.90;99.90;;;;;;5029566;28;20048;-81
2021/05/08 05:25:46;;;;;;;23.00;4.68;;;7.90;99.90;;;;;;5029485;28;20096;-82
2021/05/08 05:28:23;;;;;;;19.20;4.78;;;7.90;99.90;;;;;;5029680;28;20075;-82
2021/05/08 05:30:49;;;;;;;18.55;3.88;;;7.90;99.90;;;;;;5031166;28;20025;-80
2021/05/08 05:33:14;;;;;;;21.77;4.20;;;7.90;99.90;;;;;;5013202;28;20477;-82
2021/05/08 05:35:40;;;;;;;23.33;4.35;;;7.90;99.90;;;;;;5031000;28;20108;-82
2021/05/08 05:38:06;;;;;;;22.35;3.72;;;8.00;99.90;;;;;;5029908;28;20033;-82
2021/05/08 05:40:33;;;;;;;16.90;5.63;;;8.00;99.90;;;;;;5013253;28;20033;-83
2021/05/08 05:42:58;;;;;;;17.63;4.50;;;8.00;99.90;;;;;;5029825;28;20243;-81
2021/05/08 05:45:24;;;;;;;21.08;5.30;;;8.10;99.90;;;;;;5029557;28;20439;-80
2021/05/08 05:47:58;;;;;;;15.70;3.00;;;8.10;99.90;;;;;;5029509;28;20535;-81
2021/05/08 05:50:24;;;;;;;9.75;2.78;;;8.10;99.90;;;;;;5029594;28;20033;-81
2021/05/08 05:52:53;;;;;;;8.75;3.00;;;8.10;99.90;;;;;;5029319;28;20036;-81
2021/05/08 05:55:22;;;;;;;19.63;4.35;;;8.20;99.90;;;;;;5029730;28;20025;-82
2021/05/08 05:57:49;;;;;;;11.30;3.35;;;8.20;99.90;;;;;;5030651;28;20046;-80
2021/05/08 06:00:15;;;;;;;11.68;3.78;;;8.30;99.90;;;;;;5029310;28;20447;-82
2021/05/08 06:02:41;;;;;;;20.90;3.45;;;8.30;99.90;;;;;;5030522;28;20083;-81
2021/05/08 06:05:08;;;;;;;15.15;3.53;;;8.30;99.90;;;;;;5029293;28;20029;-80
2021/05/08 06:07:33;;;;;;;10.57;2.95;;;8.40;99.90;;;;;;5030425;28;20435;-80
2021/05/08 06:09:59;;;;;;;9.20;2.88;;;8.40;99.90;;;;;;5029226;28;20018;-81
2021/05/08 06:12:25;;;;;;;10.27;2.70;;;8.40;99.90;;;;;;5029328;28;20062;-82
2021/05/08 06:14:51;;;;;;;12.95;2.63;;;8.40;99.90;;;;;;5030665;28;20028;-81
2021/05/08 06:17:17;;;;;;;7.00;2.17;;;8.50;99.90;;;;;;5028606;28;20033;-82
2021/05/08 06:19:42;;;;;;;13.02;2.45;;;8.50;99.90;;;;;;5029071;28;20064;-78
2021/05/08 06:22:08;;;;;;;19.35;3.35;;;8.60;99.90;;;;;;5028897;28;20057;-82
2021/05/08 06:24:34;;;;;;;14.25;3.10;;;8.60;99.90;;;;;;5029116;28;20472;-81
2021/05/08 06:27:00;;;;;;;10.52;2.60;;;8.70;99.90;;;;;;5030443;28;20112;-80
2021/05/08 06:29:25;;;;;;;11.85;2.83;;;8.80;99.90;;;;;;5030206;28;20236;-82
2021/05/08 06:31:51;;;;;;;17.83;2.60;;;8.80;99.90;;;;;;5029076;28;20021;-82
2021/05/08 06:34:17;;;;;;;7.65;1.98;;;8.90;99.90;;;;;;5012522;28;20075;-83
2021/05/08 06:36:42;;;;;;;11.93;1.92;;;8.90;99.90;;;;;;5028702;28;20025;-82
2021/05/08 06:39:08;;;;;;;14.18;2.25;;;8.90;99.90;;;;;;5028945;28;20033;-80
2021/05/08 06:41:34;;;;;;;14.05;2.25;;;9.00;99.90;;;;;;5028263;28;20033;-70
2021/05/08 06:43:59;;;;;;;9.18;1.52;;;9.00;99.90;;;;;;5030078;28;20034;-82
2021/05/08 06:46:25;;;;;;;17.02;2.10;;;9.00;99.90;;;;;;5028649;28;20034;-81
2021/05/08 06:48:51;;;;;;;14.27;2.28;;;9.00;99.90;;;;;;5012217;28;20502;-82
2021/05/08 06:51:17;;;;;;;12.50;1.52;;;9.10;99.90;;;;;;5030182;28;20029;-83
2021/05/08 06:53:43;;;;;;;12.65;2.10;;;9.10;99.90;;;;;;5028525;28;20083;-83
2021/05/08 06:56:09;;;;;;;21.27;2.47;;;9.10;99.90;;;;;;5030189;28;20511;-81
2021/05/08 06:58:34;;;;;;;18.27;2.20;;;9.20;99.90;;;;;;5028884;28;20069;-82
2021/05/08 07:01:00;;;;;;;8.45;2.30;;;9.20;99.90;;;;;;5011943;28;20041;-82
2021/05/08 07:03:26;;;;;;;9.80;2.15;;;9.20;99.90;;;;;;5029669;28;20086;-82
2021/05/08 07:05:52;;;;;;;13.88;2.20;;;9.20;99.90;;;;;;5028238;28;20536;-83
2021/05/08 07:08:17;;;;;;;8.32;2.75;;;9.20;99.90;;;;;;5029367;28;20034;-82
2021/05/08 07:10:44;;;;;;;11.38;2.47;;;9.30;99.90;;;;;;5028063;28;20122;-82
2021/05/08 07:13:10;;;;;;;13.35;2.22;;;9.30;99.90;;;;;;5028055;28;20326;-82
2021/05/08 07:15:36;;;;;;;8.50;1.75;;;9.40;99.90;;;;;;5029436;28;20485;-81
2021/05/08 07:18:03;;;;;;;9.70;2.20;;;9.50;99.90;;;;;;5028108;28;20392;-82
2021/05/08 07:20:30;;;;;;;12.90;2.72;;;9.50;99.90;;;;;;5029707;28;20056;-82
2021/05/08 07:22:56;;;;;;;15.90;2.33;;;9.60;99.90;;;;;;5011635;28;20511;-82
2021/05/08 07:25:22;;;;;;;9.48;2.03;;;9.60;99.90;;;;;;5011522;28;20038;-83
2021/05/08 07:27:48;;;;;;;14.60;2.10;;;9.60;99.90;;;;;;5028694;28;20037;-81
2021/05/08 07:30:14;;;;;;;11.77;2.75;;;9.70;99.90;;;;;;5027814;28;20029;-81
2021/05/08 07:32:40;;;;;;;14.02;2.92;;;9.70;99.90;;;;;;5029360;28;20246;-82
2021/05/08 07:35:07;;;;;;;15.02;2.88;;;9.80;99.90;;;;;;5029426;28;20113;-82
2021/05/08 07:37:32;;;;;;;11.02;2.60;;;9.90;99.90;;;;;;5030224;28;20021;-83
2021/05/08 07:39:59;;;;;;;20.83;2.17;;;10.00;99.90;;;;;;5028772;28;20025;-82
2021/05/08 07:42:24;;;;;;;17.42;2.28;;;10.00;99.90;;;;;;5028261;28;20100;-82
2021/05/08 07:44:50;;;;;;;12.23;2.22;;;10.10;99.90;;;;;;5028624;28;20117;-82
2021/05/08 07:47:16;;;;;;;13.02;2.42;;;10.20;99.90;;;;;;5029299;28;20017;-82
2021/05/08 07:49:41;;;;;;;9.15;2.65;;;10.20;99.90;;;;;;5029025;28;20389;-84
2021/05/08 07:52:07;;;;;;;14.13;2.38;;;10.30;99.90;;;;;;5028329;28;20257;-83
2021/05/08 07:54:33;;;;;;;15.90;5.97;;;10.40;99.90;;;;;;5028147;28;20026;-83
2021/05/08 07:56:59;;;;;;;19.15;2.65;;;10.50;99.90;;;;;;5029987;28;20109;-83
2021/05/08 07:59:24;;;;;;;15.60;2.58;;;10.50;99.90;;;;;;5044818;28;20029;-83
2021/05/08 08:01:50;;;;;;;15.77;2.70;;;10.60;99.90;;;;;;5029294;28;20033;-82
2021/05/08 08:04:16;;;;;;;11.32;2.53;;;10.70;99.90;;;;;;5028626;28;20030;-84
2021/05/08 08:06:42;;;;;;;13.40;3.08;;;10.80;99.90;;;;;;5012831;28;20083;-79
2021/05/08 08:09:08;;;;;;;18.85;4.03;;;10.90;99.90;;;;;;5027835;28;20451;-82
2021/05/08 08:11:34;;;;;;;13.77;3.10;;;11.00;99.90;;;;;;5028365;28;20025;-85
2021/05/08 08:14:00;;;;;;;18.10;3.72;;;11.00;99.90;;;;;;5031030;28;20046;-83
2021/05/08 08:16:26;;;;;;;11.73;4.22;;;11.10;99.90;;;;;;5031048;28;20025;-83
2021/05/08 08:18:51;;;;;;;13.70;3.35;;;11.10;99.90;;;;;;5031294;28;20102;-84
2021/05/08 08:21:17;;;;;;;7.88;3.17;;;11.20;99.90;;;;;;5029404;28;20127;-84
2021/05/08 08:23:43;;;;;;;21.45;4.47;;;11.30;99.90;;;;;;5029907;28;20108;-84
2021/05/08 08:26:09;;;;;;;19.60;4.63;;;11.30;99.90;;;;;;5031361;28;20068;-83
2021/05/08 08:28:34;;;;;;;16.65;3.55;;;11.50;99.90;;;;;;5013151;28;20041;-83
2021/05/08 08:31:00;;;;;;;10.10;3.50;;;11.60;99.90;;;;;;5013732;28;20029;-84
2021/05/08 08:33:26;;;;;;;14.55;3.10;;;11.70;99.90;;;;;;5013155;28;20029;-83
2021/05/08 08:35:54;;;;;;;15.02;3.30;;;11.90;99.90;;;;;;5029104;28;20163;-84
2021/05/08 08:38:19;;;;;;;19.40;4.15;;;12.00;99.90;;;;;;5029791;28;20442;-84
2021/05/08 08:40:46;;;;;;;18.63;4.07;;;12.10;99.90;;;;;;5012749;28;20033;-84
2021/05/08 08:43:12;;;;;;;18.55;4.22;;;12.10;99.90;;;;;;5013409;28;20029;-83
2021/05/08 08:45:39;;;;;;;19.52;4.35;;;12.20;99.90;;;;;;5030334;28;20373;-84
2021/05/08 08:48:05;;;;;;;15.20;3.63;;;12.20;99.90;;;;;;5029622;28;20120;-84
2021/05/08 08:50:35;;;;;;;19.10;4.32;;;12.30;99.90;;;;;;5030189;28;20511;-83
2021/05/08 08:53:01;;;;;;;21.23;4.45;;;12.30;99.90;;;;;;5030285;28;20025;-83
2021/05/08 08:55:27;;;;;;;14.43;3.63;;;12.40;99.90;;;;;;5062144;28;20037;-83
2021/05/08 08:57:55;;;;;;;22.45;4.20;;;12.50;99.90;;;;;;5028516;28;20460;-83
2021/05/08 09:00:21;;;;;;;13.43;3.45;;;12.70;99.90;;;;;;5028175;28;20036;-84
2021/05/08 09:02:49;;;;;;;11.85;3.30;;;12.80;99.90;;;;;;5012909;28;20044;-84
2021/05/08 09:05:17;;;;;;;10.95;3.22;;;13.00;99.90;;;;;;5029559;28;20084;-85
2021/05/08 09:07:45;;;;;;;14.80;3.80;;;13.10;99.90;;;;;;5030437;28;20074;-84
2021/05/08 09:10:26;;;;;;;16.50;4.93;;;13.20;99.90;;;;;;5029967;28;20079;-84
2021/05/08 09:12:54;;;;;;;12.68;2.95;;;13.50;99.90;;;;;;5028204;28;20112;-82
2021/05/08 09:15:33;;;;;;;10.52;2.90;;;14.00;99.90;;;;;;5012634;28;20037;-83
2021/05/08 09:18:00;;;;;;;5.83;2.30;;;14.30;99.90;;;;;;5031777;28;20022;-82
2021/05/08 09:20:50;;;;;;;9.52;2.60;;;14.50;99.90;;;;;;5028790;28;20109;-82
2021/05/08 09:23:23;;;;;;;12.77;4.45;;;14.50;99.90;;;;;;5029326;28;20022;-82
2021/05/08 09:26:06;;;;;;;8.60;3.25;;;14.70;99.90;;;;;;5027155;28;20400;-84
2021/05/08 09:28:52;;;;;;;6.38;2.28;;;14.80;99.90;;;;;;5011708;28;20429;-85
2021/05/08 09:31:18;;;;;;;7.18;2.50;;;14.80;99.90;;;;;;5027386;28;20037;-83
2021/05/08 09:33:51;;;;;;;5.47;1.63;;;14.80;99.90;;;;;;5010655;28;20226;-83
2021/05/08 09:36:17;;;;;;;4.40;1.80;;;14.80;99.90;;;;;;5028386;28;20034;-82
2021/05/08 09:38:44;;;;;;;9.68;2.17;;;14.80;99.90;;;;;;5010752;28;20468;-84
2021/05/08 09:41:14;;;;;;;4.20;0.90;;;14.80;99.90;;;;;;5026970;28;20022;-80
2021/05/08 09:43:40;;;;;;;2.80;1.23;;;14.80;99.90;;;;;;5025949;28;20021;-81
2021/05/08 09:46:07;;;;;;;4.60;1.40;;;14.80;99.90;;;;;;5026624;28;20029;-80
2021/05/08 09:48:38;;;;;;;5.78;1.60;;;15.00;99.90;;;;;;5025125;28;20546;-82
2021/05/08 09:51:27;;;;;;;3.53;1.27;;;15.10;99.90;;;;;;5024641;28;20160;-80
2021/05/08 09:54:14;;;;;;;2.00;0.90;;;15.10;99.90;;;;;;5030170;28;20021;-81
2021/05/08 09:56:42;;;;;;;2.00;0.80;;;14.90;99.90;;;;;;5030567;28;20072;-83
2021/05/08 09:59:23;;;;;;;4.88;1.83;;;14.90;99.90;;;;;;5029814;28;20069;-83
2021/05/08 10:02:09;;;;;;;7.65;3.50;;;15.60;99.90;;;;;;5031660;28;20099;-83
2021/05/08 10:04:37;;;;;;;4.63;2.08;;;16.50;99.90;;;;;;5029232;28;20025;-84
2021/05/08 10:07:16;;;;;;;2.45;0.85;;;17.90;99.90;;;;;;5030784;28;20108;-79
2021/05/08 10:09:44;;;;;;;4.27;0.90;;;19.40;99.90;;;;;;5030994;28;20033;-86
2021/05/08 10:12:21;;;;;;;4.32;1.25;;;20.80;99.90;;;;;;5030743;28;20264;-84
2021/05/08 10:14:49;;;;;;;3.38;1.80;;;21.80;99.90;;;;;;5029544;28;20119;-84
2021/05/08 10:17:20;;;;;;;4.18;1.30;;;22.60;99.10;;;;;;5046176;28;20505;-83
2021/05/08 10:19:48;;;;;;;11.20;10.10;;;23.30;96.60;;;;;;5029467;28;20507;-86
2021/05/08 10:22:15;;;;;;;7.57;5.32;;;23.70;95.00;;;;;;5030488;28;20021;-86
2021/05/08 10:24:43;;;;;;;9.05;6.22;;;23.80;92.30;;;;;;5030742;28;20395;-85
2021/05/08 10:27:10;;;;;;;14.52;7.43;;;23.40;90.30;;;;;;5031074;28;20345;-86
2021/05/08 10:29:47;;;;;;;10.73;5.15;;;23.00;90.00;;;;;;5031755;28;20045;-85
2021/05/08 10:32:18;;;;;;;10.10;7.07;;;22.40;87.40;;;;;;5030893;28;20025;-87
2021/05/08 10:35:01;;;;;;;7.10;3.25;;;22.00;86.90;;;;;;5033280;28;20044;-86
2021/05/08 10:37:29;;;;;;;6.45;1.98;;;21.40;87.20;;;;;;5030992;28;20047;-85
2021/05/08 10:40:06;;;;;;;7.20;3.03;;;21.10;89.10;;;;;;5030513;28;20030;-87
2021/05/08 10:42:43;;;;;;;3.85;1.90;;;20.90;88.70;;;;;;5031156;28;20034;-85
2021/05/08 10:45:20;;;;;;;2.35;1.10;;;20.80;89.20;;;;;;5031576;28;20022;-85
2021/05/08 10:47:55;;;;;;;4.30;1.55;;;20.60;88.40;;;;;;5029870;28;20022;-85
2021/05/08 10:50:24;;;;;;;5.32;1.70;;;20.30;88.30;;;;;;5031095;28;20029;-84
2021/05/08 10:53:17;;;;;;;3.65;1.45;;;20.10;89.60;;;;;;5031546;28;20022;-84
2021/05/08 10:55:52;;;;;;;13.50;7.10;;;20.10;90.20;;;;;;5030400;28;20026;-85
2021/05/08 10:58:18;;;;;;;6.38;1.85;;;20.30;90.60;;;;;;5028831;28;20078;-83
2021/05/08 11:00:45;;;;;;;5.32;1.70;;;20.70;90.50;;;;;;5030515;28;20020;-84
2021/05/08 11:03:11;;;;;;;5.15;1.45;;;20.80;88.40;;;;;;5029524;28;20036;-86
2021/05/08 11:05:50;;;;;;;4.63;1.52;;;20.80;87.80;;;;;;5013174;28;20034;-86
2021/05/08 11:08:25;;;;;;;4.82;1.60;;;21.00;87.00;;;;;;5013241;28;20052;-85
2021/05/08 11:10:56;;;;;;;5.70;2.05;;;20.90;84.70;;;;;;5029125;28;20064;-85
2021/05/08 11:13:24;;;;;;;5.70;1.83;;;20.70;84.30;;;;;;5029526;28;20032;-87
2021/05/08 11:15:56;;;;;;;3.08;1.23;;;20.50;84.90;;;;;;5028252;28;20056;-84
2021/05/08 11:18:40;;;;;;;6.18;1.92;;;21.20;88.40;;;;;;5028351;28;20060;-85
2021/05/08 11:21:12;;;;;;;3.65;1.20;;;22.20;87.40;;;;;;5028111;28;20080;-85
2021/05/08 11:23:42;;;;;;;3.65;1.30;;;23.40;84.60;;;;;;5028210;28;20029;-86
2021/05/08 11:26:26;;;;;;;3.42;1.60;;;23.30;79.10;;;;;;5011908;28;20026;-84
2021/05/08 11:28:59;;;;;;;4.75;1.50;;;23.10;78.60;;;;;;5028500;28;20032;-85
2021/05/08 11:31:45;;;;;;;5.53;2.10;;;23.40;78.90;;;;;;5028419;28;20380;-86
2021/05/08 11:34:26;;;;;;;4.53;2.25;;;24.40;79.90;;;;;;5028941;28;20029;-84
2021/05/08 11:36:58;;;;;;;3.67;1.92;;;26.00;79.00;;;;;;5028821;28;20034;-84
2021/05/08 11:39:27;;;;;;;3.50;0.90;;;27.20;76.50;;;;;;5028749;28;20029;-85
2021/05/08 11:41:56;;;;;;;5.43;2.27;;;28.10;72.20;;;;;;5027453;28;20021;-84
2021/05/08 11:44:23;;;;;;;4.63;1.73;;;28.40;69.30;;;;;;5012138;28;20025;-86
2021/05/08 11:46:56;;;;;;;3.53;1.27;;;28.70;67.80;;;;;;5011949;28;20286;-85
2021/05/08 11:49:37;;;;;;;4.45;1.70;;;28.60;64.50;;;;;;5028920;28;20033;-86
2021/05/08 11:52:05;;;;;;;3.03;1.13;;;28.00;62.40;;;;;;5030179;28;20029;-85
2021/05/08 11:54:41;;;;;;;2.33;1.02;;;27.30;62.20;;;;;;5028823;28;20025;-85
2021/05/08 11:57:23;;;;;;;4.07;1.35;;;27.20;62.80;;;;;;5028166;28;20394;-87
2021/05/08 11:59:49;;;;;;;4.03;1.55;;;27.40;63.10;;;;;;5028744;28;20022;-89
2021/05/08 12:02:25;;;;;;;4.30;1.40;;;27.50;62.80;;;;;;5027548;28;20056;-84
2021/05/08 12:04:54;;;;;;;4.50;1.77;;;27.60;61.20;;;;;;5027447;28;20071;-87
2021/05/08 12:07:22;;;;;;;2.88;1.10;;;27.00;59.70;;;;;;5027944;28;20134;-86
2021/05/08 12:09:49;;;;;;;3.83;1.30;;;26.20;59.40;;;;;;5027954;28;20029;-86
2021/05/08 12:12:14;;;;;;;3.70;1.23;;;25.30;60.10;;;;;;5010791;28;20049;-85
2021/05/08 12:14:45;;;;;;;3.70;1.10;;;24.60;60.80;;;;;;5026461;28;20037;-85
2021/05/08 12:17:12;;;;;;;5.32;1.63;;;24.10;61.20;;;;;;5027436;28;20026;-86
2021/05/08 12:19:44;;;;;;;11.95;2.60;;;23.60;62.80;;;;;;5026270;28;20037;-86
2021/05/08 12:22:11;;;;;;;5.15;2.08;;;23.10;63.00;;;;;;5026515;28;20079;-84
2021/05/08 12:24:37;;;;;;;4.45;1.42;;;22.80;64.10;;;;;;5028193;28;20461;-84
2021/05/08 12:27:02;;;;;;;4.07;1.27;;;22.60;64.70;;;;;;5026025;28;20036;-84
2021/05/08 12:29:55;;;;;;;5.30;1.30;;;22.90;65.80;;;;;;5026537;28;20036;-84
2021/05/08 12:32:21;;;;;;;6.45;2.63;;;23.10;65.20;;;;;;5025691;28;20021;-86
2021/05/08 12:34:51;;;;;;;5.65;1.95;;;22.80;64.60;;;;;;5026663;28;20048;-84
2021/05/08 12:37:17;;;;;;;6.05;2.80;;;22.60;64.60;;;;;;5010255;28;20045;-84
2021/05/08 12:39:48;;;;;;;5.43;1.30;;;23.00;66.90;;;;;;5026578;28;20077;-83
2021/05/08 12:42:14;;;;;;;7.63;3.35;;;23.40;65.50;;;;;;5026942;28;20032;-85
2021/05/08 12:44:45;;;;;;;3.33;1.45;;;23.50;66.00;;;;;;5025752;28;20017;-84
2021/05/08 12:47:24;;;;;;;4.15;1.17;;;24.00;65.60;;;;;;5027121;28;20167;-85
2021/05/08 12:50:08;;;;;;;3.28;0.90;;;24.40;65.60;;;;;;5011510;28;20029;-84
2021/05/08 12:52:35;;;;;;;2.78;0.95;;;24.60;64.00;;;;;;5028966;28;20473;-85